sensor_id;sensor_type;location;lat;lon;timestamp;P1;durP1;ratioP1;P2;durP2;ratioP2
23384;SDS011;11865;45.394;10.978;2023-06-10T00:02:28;18.88;;;14.55;;
23384;SDS011;11865;45.394;10.978;2023-06-10T00:04:56;20.27;;;14.80;;
23384;SDS011;11865;45.394;10.978;2023-06-10T00:07:24;19.90;;;14.80;;
23384;SDS011;11865;45.394;10.978;2023-06-10T00:09:52;17.88;;;14.07;;
23384;SDS011;11865;45.394;10.978;2023-06-10T00:12:19;19.27;;;15.70;;
23384;SDS011;11865;45.394;10.978;2023-06-10T00:14:47;20.17;;;15.07;;
23384;SDS011;11865;45.394;10.978;2023-06-10T00:17:17;17.55;;;15.13;;
23384;SDS011;11865;45.394;10.978;2023-06-10T00:19:44;18.85;;;16.23;;
23384;SDS011;11865;45.394;10.978;2023-06-10T00:22:14;15.63;;;13.80;;
23384;SDS011;11865;45.394;10.978;2023-06-10T00:24:41;17.67;;;15.10;;
23384;SDS011;11865;45.394;10.978;2023-06-10T00:27:09;17.55;;;14.52;;
23384;SDS011;11865;45.394;10.978;2023-06-10T00:29:37;17.33;;;14.20;;
23384;SDS011;11865;45.394;10.978;2023-06-10T00:32:06;19.85;;;15.35;;
23384;SDS011;11865;45.394;10.978;2023-06-10T00:34:34;17.25;;;14.23;;
23384;SDS011;11865;45.394;10.978;2023-06-10T00:37:02;17.38;;;15.23;;
23384;SDS011;11865;45.394;10.978;2023-06-10T00:39:30;19.42;;;14.75;;
23384;SDS011;11865;45.394;10.978;2023-06-10T00:41:57;21.00;;;16.35;;
23384;SDS011;11865;45.394;10.978;2023-06-10T00:44:26;19.10;;;16.05;;
23384;SDS011;11865;45.394;10.978;2023-06-10T00:46:54;19.73;;;16.98;;
23384;SDS011;11865;45.394;10.978;2023-06-10T00:49:23;20.25;;;16.80;;
23384;SDS011;11865;45.394;10.978;2023-06-10T00:51:51;19.55;;;16.58;;
23384;SDS011;11865;45.394;10.978;2023-06-10T00:54:20;19.58;;;16.20;;
23384;SDS011;11865;45.394;10.978;2023-06-10T00:56:48;20.40;;;15.82;;
23384;SDS011;11865;45.394;10.978;2023-06-10T00:59:16;21.83;;;16.23;;
23384;SDS011;11865;45.394;10.978;2023-06-10T01:01:45;18.33;;;16.20;;
23384;SDS011;11865;45.394;10.978;2023-06-10T01:04:16;17.40;;;15.50;;
23384;SDS011;11865;45.394;10.978;2023-06-10T01:10:32;21.13;;;16.38;;
23384;SDS011;11865;45.394;10.978;2023-06-10T01:15:16;19.63;;;16.00;;
23384;SDS011;11865;45.394;10.978;2023-06-10T01:17:54;20.33;;;16.77;;
23384;SDS011;11865;45.394;10.978;2023-06-10T01:20:25;20.23;;;17.23;;
23384;SDS011;11865;45.394;10.978;2023-06-10T01:22:56;21.52;;;17.70;;
23384;SDS011;11865;45.394;10.978;2023-06-10T01:25:26;21.15;;;17.35;;
23384;SDS011;11865;45.394;10.978;2023-06-10T01:33:36;21.25;;;18.25;;
23384;SDS011;11865;45.394;10.978;2023-06-10T01:36:08;21.48;;;18.35;;
23384;SDS011;11865;45.394;10.978;2023-06-10T01:38:42;23.88;;;18.52;;
23384;SDS011;11865;45.394;10.978;2023-06-10T01:41:14;23.02;;;18.70;;
23384;SDS011;11865;45.394;10.978;2023-06-10T01:43:44;22.30;;;18.73;;
23384;SDS011;11865;45.394;10.978;2023-06-10T01:46:13;21.42;;;17.25;;
23384;SDS011;11865;45.394;10.978;2023-06-10T01:48:42;18.85;;;16.50;;
23384;SDS011;11865;45.394;10.978;2023-06-10T01:51:09;19.17;;;15.98;;
23384;SDS011;11865;45.394;10.978;2023-06-10T01:53:37;20.05;;;15.57;;
23384;SDS011;11865;45.394;10.978;2023-06-10T01:56:04;18.90;;;15.68;;
23384;SDS011;11865;45.394;10.978;2023-06-10T01:58:32;20.38;;;15.32;;
23384;SDS011;11865;45.394;10.978;2023-06-10T02:01:00;17.15;;;14.13;;
23384;SDS011;11865;45.394;10.978;2023-06-10T02:03:27;19.17;;;15.65;;
23384;SDS011;11865;45.394;10.978;2023-06-10T02:05:55;22.15;;;17.10;;
23384;SDS011;11865;45.394;10.978;2023-06-10T02:08:23;24.15;;;18.80;;
23384;SDS011;11865;45.394;10.978;2023-06-10T02:10:51;18.58;;;16.35;;
23384;SDS011;11865;45.394;10.978;2023-06-10T02:13:19;21.40;;;17.98;;
23384;SDS011;11865;45.394;10.978;2023-06-10T02:15:51;21.30;;;17.40;;
23384;SDS011;11865;45.394;10.978;2023-06-10T02:18:20;24.90;;;19.25;;
23384;SDS011;11865;45.394;10.978;2023-06-10T02:20:48;22.83;;;18.00;;
23384;SDS011;11865;45.394;10.978;2023-06-10T02:23:16;25.55;;;20.80;;
23384;SDS011;11865;45.394;10.978;2023-06-10T02:25:44;25.20;;;20.40;;
23384;SDS011;11865;45.394;10.978;2023-06-10T02:28:11;23.63;;;20.48;;
23384;SDS011;11865;45.394;10.978;2023-06-10T02:30:42;22.98;;;18.80;;
23384;SDS011;11865;45.394;10.978;2023-06-10T02:33:09;20.63;;;17.75;;
23384;SDS011;11865;45.394;10.978;2023-06-10T02:35:38;22.25;;;18.88;;
23384;SDS011;11865;45.394;10.978;2023-06-10T02:38:06;21.95;;;17.25;;
23384;SDS011;11865;45.394;10.978;2023-06-10T02:40:34;23.52;;;18.85;;
23384;SDS011;11865;45.394;10.978;2023-06-10T02:43:02;22.30;;;17.48;;
23384;SDS011;11865;45.394;10.978;2023-06-10T02:45:31;21.85;;;17.08;;
23384;SDS011;11865;45.394;10.978;2023-06-10T02:48:00;17.48;;;14.65;;
23384;SDS011;11865;45.394;10.978;2023-06-10T02:50:29;19.38;;;14.88;;
23384;SDS011;11865;45.394;10.978;2023-06-10T02:53:20;16.48;;;14.40;;
23384;SDS011;11865;45.394;10.978;2023-06-10T02:55:53;21.00;;;14.02;;
23384;SDS011;11865;45.394;10.978;2023-06-10T02:58:21;18.35;;;14.40;;
23384;SDS011;11865;45.394;10.978;2023-06-10T03:00:49;16.08;;;13.32;;
23384;SDS011;11865;45.394;10.978;2023-06-10T03:03:17;16.45;;;12.13;;
23384;SDS011;11865;45.394;10.978;2023-06-10T03:05:54;17.65;;;12.40;;
23384;SDS011;11865;45.394;10.978;2023-06-10T03:08:24;13.60;;;11.75;;
23384;SDS011;11865;45.394;10.978;2023-06-10T03:10:54;14.48;;;11.65;;
23384;SDS011;11865;45.394;10.978;2023-06-10T03:13:22;16.65;;;12.35;;
23384;SDS011;11865;45.394;10.978;2023-06-10T03:15:50;15.02;;;12.00;;
23384;SDS011;11865;45.394;10.978;2023-06-10T03:18:20;14.52;;;12.32;;
23384;SDS011;11865;45.394;10.978;2023-06-10T03:20:50;16.73;;;12.68;;
23384;SDS011;11865;45.394;10.978;2023-06-10T03:23:19;18.00;;;13.10;;
23384;SDS011;11865;45.394;10.978;2023-06-10T03:25:46;19.73;;;13.43;;
23384;SDS011;11865;45.394;10.978;2023-06-10T03:28:17;17.27;;;13.52;;
23384;SDS011;11865;45.394;10.978;2023-06-10T03:30:44;16.15;;;13.43;;
23384;SDS011;11865;45.394;10.978;2023-06-10T03:33:12;16.15;;;14.07;;
23384;SDS011;11865;45.394;10.978;2023-06-10T03:35:42;16.95;;;13.45;;
23384;SDS011;11865;45.394;10.978;2023-06-10T03:38:10;16.63;;;13.50;;
23384;SDS011;11865;45.394;10.978;2023-06-10T03:40:38;16.88;;;13.45;;
23384;SDS011;11865;45.394;10.978;2023-06-10T03:43:06;16.23;;;13.82;;
23384;SDS011;11865;45.394;10.978;2023-06-10T03:45:35;15.55;;;13.60;;
23384;SDS011;11865;45.394;10.978;2023-06-10T03:48:03;17.65;;;13.75;;
23384;SDS011;11865;45.394;10.978;2023-06-10T03:50:40;16.33;;;12.95;;
23384;SDS011;11865;45.394;10.978;2023-06-10T03:53:08;15.82;;;13.00;;
23384;SDS011;11865;45.394;10.978;2023-06-10T03:55:38;19.05;;;14.02;;
23384;SDS011;11865;45.394;10.978;2023-06-10T03:58:05;17.10;;;13.50;;
23384;SDS011;11865;45.394;10.978;2023-06-10T04:00:33;17.63;;;13.10;;
23384;SDS011;11865;45.394;10.978;2023-06-10T04:03:08;17.60;;;13.75;;
23384;SDS011;11865;45.394;10.978;2023-06-10T04:05:45;17.95;;;13.45;;
23384;SDS011;11865;45.394;10.978;2023-06-10T04:08:12;17.23;;;14.05;;
23384;SDS011;11865;45.394;10.978;2023-06-10T04:10:40;18.35;;;13.40;;
23384;SDS011;11865;45.394;10.978;2023-06-10T04:13:07;19.77;;;13.98;;
23384;SDS011;11865;45.394;10.978;2023-06-10T04:15:42;19.25;;;13.18;;
23384;SDS011;11865;45.394;10.978;2023-06-10T04:18:14;18.08;;;14.30;;
23384;SDS011;11865;45.394;10.978;2023-06-10T04:20:44;17.83;;;13.63;;
23384;SDS011;11865;45.394;10.978;2023-06-10T04:23:12;17.13;;;14.10;;
23384;SDS011;11865;45.394;10.978;2023-06-10T04:25:42;16.27;;;13.38;;
23384;SDS011;11865;45.394;10.978;2023-06-10T04:28:10;21.80;;;14.55;;
23384;SDS011;11865;45.394;10.978;2023-06-10T04:30:38;17.73;;;14.50;;
23384;SDS011;11865;45.394;10.978;2023-06-10T04:33:06;23.17;;;15.18;;
23384;SDS011;11865;45.394;10.978;2023-06-10T04:35:36;18.50;;;14.13;;
23384;SDS011;11865;45.394;10.978;2023-06-10T04:38:06;20.42;;;14.70;;
23384;SDS011;11865;45.394;10.978;2023-06-10T04:40:34;17.75;;;14.18;;
23384;SDS011;11865;45.394;10.978;2023-06-10T04:43:03;17.45;;;14.05;;
23384;SDS011;11865;45.394;10.978;2023-06-10T04:45:32;19.00;;;14.45;;
23384;SDS011;11865;45.394;10.978;2023-06-10T04:48:00;18.95;;;13.07;;
23384;SDS011;11865;45.394;10.978;2023-06-10T04:50:28;17.65;;;12.85;;
23384;SDS011;11865;45.394;10.978;2023-06-10T04:52:55;20.00;;;12.60;;
23384;SDS011;11865;45.394;10.978;2023-06-10T04:55:25;16.42;;;13.25;;
23384;SDS011;11865;45.394;10.978;2023-06-10T04:57:53;16.45;;;13.18;;
23384;SDS011;11865;45.394;10.978;2023-06-10T05:00:20;17.42;;;13.77;;
23384;SDS011;11865;45.394;10.978;2023-06-10T05:02:48;18.27;;;13.93;;
23384;SDS011;11865;45.394;10.978;2023-06-10T05:05:17;16.73;;;13.25;;
23384;SDS011;11865;45.394;10.978;2023-06-10T05:07:45;20.58;;;13.73;;
23384;SDS011;11865;45.394;10.978;2023-06-10T05:10:12;17.88;;;13.95;;
23384;SDS011;11865;45.394;10.978;2023-06-10T05:12:40;21.10;;;14.32;;
23384;SDS011;11865;45.394;10.978;2023-06-10T05:15:08;20.02;;;14.25;;
23384;SDS011;11865;45.394;10.978;2023-06-10T05:17:36;19.42;;;13.40;;
23384;SDS011;11865;45.394;10.978;2023-06-10T05:20:04;14.05;;;11.63;;
23384;SDS011;11865;45.394;10.978;2023-06-10T05:22:33;16.42;;;13.05;;
23384;SDS011;11865;45.394;10.978;2023-06-10T05:25:01;17.30;;;11.98;;
23384;SDS011;11865;45.394;10.978;2023-06-10T05:27:29;18.10;;;12.40;;
23384;SDS011;11865;45.394;10.978;2023-06-10T05:29:56;16.02;;;12.68;;
23384;SDS011;11865;45.394;10.978;2023-06-10T05:32:23;16.98;;;11.68;;
23384;SDS011;11865;45.394;10.978;2023-06-10T05:34:51;17.38;;;12.20;;
23384;SDS011;11865;45.394;10.978;2023-06-10T05:37:19;16.95;;;12.63;;
23384;SDS011;11865;45.394;10.978;2023-06-10T05:39:46;15.55;;;12.13;;
23384;SDS011;11865;45.394;10.978;2023-06-10T05:42:14;17.90;;;12.25;;
23384;SDS011;11865;45.394;10.978;2023-06-10T05:44:41;17.55;;;12.82;;
23384;SDS011;11865;45.394;10.978;2023-06-10T05:47:09;18.05;;;13.02;;
23384;SDS011;11865;45.394;10.978;2023-06-10T05:49:36;19.48;;;14.52;;
23384;SDS011;11865;45.394;10.978;2023-06-10T05:52:04;26.00;;;14.45;;
23384;SDS011;11865;45.394;10.978;2023-06-10T05:54:32;15.52;;;12.02;;
23384;SDS011;11865;45.394;10.978;2023-06-10T05:56:59;14.40;;;11.50;;
23384;SDS011;11865;45.394;10.978;2023-06-10T05:59:27;16.10;;;12.18;;
23384;SDS011;11865;45.394;10.978;2023-06-10T06:01:54;16.02;;;11.55;;
23384;SDS011;11865;45.394;10.978;2023-06-10T06:04:22;15.60;;;12.50;;
23384;SDS011;11865;45.394;10.978;2023-06-10T06:06:50;16.73;;;11.90;;
23384;SDS011;11865;45.394;10.978;2023-06-10T06:09:17;18.10;;;12.35;;
23384;SDS011;11865;45.394;10.978;2023-06-10T06:11:45;16.48;;;12.88;;
23384;SDS011;11865;45.394;10.978;2023-06-10T06:14:12;15.15;;;12.10;;
23384;SDS011;11865;45.394;10.978;2023-06-10T06:16:40;15.05;;;12.38;;
23384;SDS011;11865;45.394;10.978;2023-06-10T06:19:08;16.73;;;12.77;;
23384;SDS011;11865;45.394;10.978;2023-06-10T06:21:37;16.40;;;11.98;;
23384;SDS011;11865;45.394;10.978;2023-06-10T06:24:04;13.18;;;11.77;;
23384;SDS011;11865;45.394;10.978;2023-06-10T06:26:32;17.27;;;12.70;;
23384;SDS011;11865;45.394;10.978;2023-06-10T06:29:00;17.02;;;12.50;;
23384;SDS011;11865;45.394;10.978;2023-06-10T06:31:28;18.25;;;14.50;;
23384;SDS011;11865;45.394;10.978;2023-06-10T06:33:55;17.80;;;13.40;;
23384;SDS011;11865;45.394;10.978;2023-06-10T06:36:23;16.80;;;13.18;;
23384;SDS011;11865;45.394;10.978;2023-06-10T06:38:50;17.02;;;13.30;;
23384;SDS011;11865;45.394;10.978;2023-06-10T06:41:20;17.40;;;14.55;;
23384;SDS011;11865;45.394;10.978;2023-06-10T06:43:48;18.42;;;14.07;;
23384;SDS011;11865;45.394;10.978;2023-06-10T06:46:36;17.00;;;13.35;;
23384;SDS011;11865;45.394;10.978;2023-06-10T06:49:04;21.00;;;14.77;;
23384;SDS011;11865;45.394;10.978;2023-06-10T06:51:31;23.50;;;16.35;;
23384;SDS011;11865;45.394;10.978;2023-06-10T06:53:59;22.00;;;14.90;;
23384;SDS011;11865;45.394;10.978;2023-06-10T06:56:27;23.00;;;15.65;;
23384;SDS011;11865;45.394;10.978;2023-06-10T06:58:55;25.52;;;15.98;;
23384;SDS011;11865;45.394;10.978;2023-06-10T07:01:25;23.85;;;18.05;;
23384;SDS011;11865;45.394;10.978;2023-06-10T07:03:52;24.23;;;19.00;;
23384;SDS011;11865;45.394;10.978;2023-06-10T07:06:20;25.30;;;18.85;;
23384;SDS011;11865;45.394;10.978;2023-06-10T07:08:49;27.83;;;20.75;;
23384;SDS011;11865;45.394;10.978;2023-06-10T07:11:17;26.63;;;20.58;;
23384;SDS011;11865;45.394;10.978;2023-06-10T07:13:44;23.38;;;18.90;;
23384;SDS011;11865;45.394;10.978;2023-06-10T07:16:12;29.73;;;19.80;;
23384;SDS011;11865;45.394;10.978;2023-06-10T07:18:39;27.17;;;19.88;;
23384;SDS011;11865;45.394;10.978;2023-06-10T07:21:07;28.90;;;22.02;;
23384;SDS011;11865;45.394;10.978;2023-06-10T07:23:34;29.85;;;22.35;;
23384;SDS011;11865;45.394;10.978;2023-06-10T07:26:02;29.10;;;22.52;;
23384;SDS011;11865;45.394;10.978;2023-06-10T07:28:30;30.73;;;23.45;;
23384;SDS011;11865;45.394;10.978;2023-06-10T07:30:57;34.13;;;24.88;;
23384;SDS011;11865;45.394;10.978;2023-06-10T07:33:25;29.75;;;23.88;;
23384;SDS011;11865;45.394;10.978;2023-06-10T07:35:53;32.83;;;24.63;;
23384;SDS011;11865;45.394;10.978;2023-06-10T07:38:20;36.55;;;25.02;;
23384;SDS011;11865;45.394;10.978;2023-06-10T07:40:48;32.70;;;25.48;;
23384;SDS011;11865;45.394;10.978;2023-06-10T07:43:15;37.78;;;24.38;;
23384;SDS011;11865;45.394;10.978;2023-06-10T07:45:43;34.28;;;24.08;;
23384;SDS011;11865;45.394;10.978;2023-06-10T07:48:11;34.45;;;24.80;;
23384;SDS011;11865;45.394;10.978;2023-06-10T07:50:39;34.00;;;25.05;;
23384;SDS011;11865;45.394;10.978;2023-06-10T07:53:07;29.88;;;24.35;;
23384;SDS011;11865;45.394;10.978;2023-06-10T07:55:34;30.40;;;23.08;;
23384;SDS011;11865;45.394;10.978;2023-06-10T07:58:02;33.83;;;23.33;;
23384;SDS011;11865;45.394;10.978;2023-06-10T08:00:29;34.78;;;23.33;;
23384;SDS011;11865;45.394;10.978;2023-06-10T08:02:57;31.52;;;23.95;;
23384;SDS011;11865;45.394;10.978;2023-06-10T08:05:24;32.63;;;22.92;;
23384;SDS011;11865;45.394;10.978;2023-06-10T08:07:53;30.30;;;22.10;;
23384;SDS011;11865;45.394;10.978;2023-06-10T08:10:20;29.48;;;20.23;;
23384;SDS011;11865;45.394;10.978;2023-06-10T08:12:48;25.60;;;19.17;;
23384;SDS011;11865;45.394;10.978;2023-06-10T08:15:15;27.27;;;18.60;;
23384;SDS011;11865;45.394;10.978;2023-06-10T08:17:43;25.88;;;18.63;;
23384;SDS011;11865;45.394;10.978;2023-06-10T08:20:11;27.25;;;18.17;;
23384;SDS011;11865;45.394;10.978;2023-06-10T08:22:39;25.52;;;17.30;;
23384;SDS011;11865;45.394;10.978;2023-06-10T08:25:06;25.98;;;17.23;;
23384;SDS011;11865;45.394;10.978;2023-06-10T08:27:35;25.95;;;17.15;;
23384;SDS011;11865;45.394;10.978;2023-06-10T08:30:02;27.13;;;17.23;;
23384;SDS011;11865;45.394;10.978;2023-06-10T08:32:30;24.38;;;16.85;;
23384;SDS011;11865;45.394;10.978;2023-06-10T08:34:58;22.67;;;16.92;;
23384;SDS011;11865;45.394;10.978;2023-06-10T08:37:26;27.38;;;16.80;;
23384;SDS011;11865;45.394;10.978;2023-06-10T08:39:53;20.65;;;14.82;;
23384;SDS011;11865;45.394;10.978;2023-06-10T08:42:41;22.00;;;14.48;;
23384;SDS011;11865;45.394;10.978;2023-06-10T08:45:15;18.80;;;13.80;;
23384;SDS011;11865;45.394;10.978;2023-06-10T08:47:45;17.90;;;12.45;;
23384;SDS011;11865;45.394;10.978;2023-06-10T08:50:15;18.63;;;12.63;;
23384;SDS011;11865;45.394;10.978;2023-06-10T08:52:44;17.25;;;13.05;;
23384;SDS011;11865;45.394;10.978;2023-06-10T08:55:15;14.85;;;11.82;;
23384;SDS011;11865;45.394;10.978;2023-06-10T08:57:56;17.10;;;11.27;;
23384;SDS011;11865;45.394;10.978;2023-06-10T09:00:25;16.65;;;11.65;;
23384;SDS011;11865;45.394;10.978;2023-06-10T09:02:55;17.63;;;10.38;;
23384;SDS011;11865;45.394;10.978;2023-06-10T09:05:23;15.60;;;11.25;;
23384;SDS011;11865;45.394;10.978;2023-06-10T09:07:53;16.67;;;10.38;;
23384;SDS011;11865;45.394;10.978;2023-06-10T09:10:24;18.00;;;10.07;;
23384;SDS011;11865;45.394;10.978;2023-06-10T09:12:52;13.60;;;9.52;;
23384;SDS011;11865;45.394;10.978;2023-06-10T09:15:20;14.40;;;8.70;;
23384;SDS011;11865;45.394;10.978;2023-06-10T09:17:48;10.80;;;7.63;;
23384;SDS011;11865;45.394;10.978;2023-06-10T09:20:15;14.68;;;7.65;;
23384;SDS011;11865;45.394;10.978;2023-06-10T09:22:43;14.63;;;7.63;;
23384;SDS011;11865;45.394;10.978;2023-06-10T09:25:11;9.32;;;6.63;;
23384;SDS011;11865;45.394;10.978;2023-06-10T09:27:46;10.18;;;6.90;;
23384;SDS011;11865;45.394;10.978;2023-06-10T09:30:24;9.45;;;5.78;;
23384;SDS011;11865;45.394;10.978;2023-06-10T09:33:01;7.72;;;5.22;;
23384;SDS011;11865;45.394;10.978;2023-06-10T09:35:36;6.15;;;5.00;;
23384;SDS011;11865;45.394;10.978;2023-06-10T09:38:11;7.85;;;4.95;;
23384;SDS011;11865;45.394;10.978;2023-06-10T09:40:53;5.53;;;4.03;;
23384;SDS011;11865;45.394;10.978;2023-06-10T09:43:22;6.90;;;4.50;;
23384;SDS011;11865;45.394;10.978;2023-06-10T09:45:50;7.13;;;3.90;;
23384;SDS011;11865;45.394;10.978;2023-06-10T09:48:21;10.48;;;5.03;;
23384;SDS011;11865;45.394;10.978;2023-06-10T09:50:50;8.23;;;4.05;;
23384;SDS011;11865;45.394;10.978;2023-06-10T09:53:18;7.32;;;4.13;;
23384;SDS011;11865;45.394;10.978;2023-06-10T09:55:47;6.95;;;4.05;;
23384;SDS011;11865;45.394;10.978;2023-06-10T09:58:14;6.50;;;4.28;;
23384;SDS011;11865;45.394;10.978;2023-06-10T10:00:42;7.28;;;4.03;;
23384;SDS011;11865;45.394;10.978;2023-06-10T10:03:09;6.90;;;3.25;;
23384;SDS011;11865;45.394;10.978;2023-06-10T10:05:48;8.00;;;3.40;;
23384;SDS011;11865;45.394;10.978;2023-06-10T10:08:16;5.70;;;2.90;;
23384;SDS011;11865;45.394;10.978;2023-06-10T10:10:44;7.72;;;3.08;;
23384;SDS011;11865;45.394;10.978;2023-06-10T10:13:12;4.25;;;2.65;;
23384;SDS011;11865;45.394;10.978;2023-06-10T10:15:39;6.10;;;2.83;;
23384;SDS011;11865;45.394;10.978;2023-06-10T10:18:11;4.90;;;2.70;;
23384;SDS011;11865;45.394;10.978;2023-06-10T10:20:49;4.75;;;2.47;;
23384;SDS011;11865;45.394;10.978;2023-06-10T10:23:24;7.47;;;2.47;;
23384;SDS011;11865;45.394;10.978;2023-06-10T10:25:59;5.78;;;2.83;;
23384;SDS011;11865;45.394;10.978;2023-06-10T10:28:34;4.97;;;2.65;;
23384;SDS011;11865;45.394;10.978;2023-06-10T10:31:17;7.55;;;2.80;;
23384;SDS011;11865;45.394;10.978;2023-06-10T10:33:52;5.43;;;2.72;;
23384;SDS011;11865;45.394;10.978;2023-06-10T10:36:27;5.75;;;2.72;;
23384;SDS011;11865;45.394;10.978;2023-06-10T10:38:55;6.60;;;2.92;;
23384;SDS011;11865;45.394;10.978;2023-06-10T10:41:25;7.60;;;2.70;;
23384;SDS011;11865;45.394;10.978;2023-06-10T10:43:53;6.68;;;2.90;;
23384;SDS011;11865;45.394;10.978;2023-06-10T10:46:22;7.15;;;3.45;;
23384;SDS011;11865;45.394;10.978;2023-06-10T10:48:53;5.45;;;2.75;;
23384;SDS011;11865;45.394;10.978;2023-06-10T10:51:23;4.55;;;2.80;;
23384;SDS011;11865;45.394;10.978;2023-06-10T10:54:09;9.75;;;3.33;;
23384;SDS011;11865;45.394;10.978;2023-06-10T10:57:28;5.53;;;3.50;;
23384;SDS011;11865;45.394;10.978;2023-06-10T11:02:19;7.35;;;3.55;;
23384;SDS011;11865;45.394;10.978;2023-06-10T11:05:00;7.50;;;3.50;;
23384;SDS011;11865;45.394;10.978;2023-06-10T11:07:30;8.70;;;3.63;;
23384;SDS011;11865;45.394;10.978;2023-06-10T11:10:12;9.20;;;4.50;;
23384;SDS011;11865;45.394;10.978;2023-06-10T11:12:41;9.15;;;4.15;;
23384;SDS011;11865;45.394;10.978;2023-06-10T11:15:09;8.50;;;3.90;;
23384;SDS011;11865;45.394;10.978;2023-06-10T11:17:37;5.38;;;3.83;;
23384;SDS011;11865;45.394;10.978;2023-06-10T11:20:04;8.18;;;4.07;;
23384;SDS011;11865;45.394;10.978;2023-06-10T11:22:42;7.68;;;4.30;;
23384;SDS011;11865;45.394;10.978;2023-06-10T11:25:38;6.50;;;4.25;;
23384;SDS011;11865;45.394;10.978;2023-06-10T11:28:19;10.00;;;3.85;;
23384;SDS011;11865;45.394;10.978;2023-06-10T11:30:47;6.95;;;5.45;;
23384;SDS011;11865;45.394;10.978;2023-06-10T11:33:24;8.55;;;5.50;;
23384;SDS011;11865;45.394;10.978;2023-06-10T11:35:52;9.27;;;5.07;;
23384;SDS011;11865;45.394;10.978;2023-06-10T11:38:20;7.60;;;4.82;;
23384;SDS011;11865;45.394;10.978;2023-06-10T11:40:48;9.35;;;5.10;;
23384;SDS011;11865;45.394;10.978;2023-06-10T11:43:17;7.32;;;4.45;;
23384;SDS011;11865;45.394;10.978;2023-06-10T11:45:45;7.15;;;4.40;;
23384;SDS011;11865;45.394;10.978;2023-06-10T11:48:13;9.10;;;4.60;;
23384;SDS011;11865;45.394;10.978;2023-06-10T11:50:41;7.95;;;4.93;;
23384;SDS011;11865;45.394;10.978;2023-06-10T11:53:08;8.80;;;4.97;;
23384;SDS011;11865;45.394;10.978;2023-06-10T11:55:46;8.38;;;4.40;;
23384;SDS011;11865;45.394;10.978;2023-06-10T11:58:19;9.48;;;5.15;;
23384;SDS011;11865;45.394;10.978;2023-06-10T12:00:48;7.55;;;4.47;;
23384;SDS011;11865;45.394;10.978;2023-06-10T12:03:17;6.55;;;4.28;;
23384;SDS011;11865;45.394;10.978;2023-06-10T12:05:58;9.70;;;5.10;;
23384;SDS011;11865;45.394;10.978;2023-06-10T12:08:27;6.85;;;4.53;;
23384;SDS011;11865;45.394;10.978;2023-06-10T12:10:56;9.07;;;4.78;;
23384;SDS011;11865;45.394;10.978;2023-06-10T12:13:27;5.63;;;3.47;;
23384;SDS011;11865;45.394;10.978;2023-06-10T12:15:55;6.90;;;3.35;;
23384;SDS011;11865;45.394;10.978;2023-06-10T12:18:36;7.60;;;3.47;;
23384;SDS011;11865;45.394;10.978;2023-06-10T12:21:14;7.28;;;3.17;;
23384;SDS011;11865;45.394;10.978;2023-06-10T12:26:37;4.45;;;3.25;;
23384;SDS011;11865;45.394;10.978;2023-06-10T12:29:14;6.63;;;3.95;;
23384;SDS011;11865;45.394;10.978;2023-06-10T12:31:51;5.28;;;3.28;;
23384;SDS011;11865;45.394;10.978;2023-06-10T12:34:30;6.60;;;3.05;;
23384;SDS011;11865;45.394;10.978;2023-06-10T12:37:05;7.68;;;3.20;;
23384;SDS011;11865;45.394;10.978;2023-06-10T12:39:40;4.97;;;2.83;;
23384;SDS011;11865;45.394;10.978;2023-06-10T12:42:09;7.25;;;3.17;;
23384;SDS011;11865;45.394;10.978;2023-06-10T12:44:40;6.70;;;3.08;;
23384;SDS011;11865;45.394;10.978;2023-06-10T12:47:08;6.22;;;2.88;;
23384;SDS011;11865;45.394;10.978;2023-06-10T12:49:39;7.25;;;3.53;;
23384;SDS011;11865;45.394;10.978;2023-06-10T12:52:06;3.63;;;2.83;;
23384;SDS011;11865;45.394;10.978;2023-06-10T12:54:34;4.45;;;2.80;;
23384;SDS011;11865;45.394;10.978;2023-06-10T12:57:02;5.30;;;3.35;;
23384;SDS011;11865;45.394;10.978;2023-06-10T12:59:30;8.40;;;2.78;;
23384;SDS011;11865;45.394;10.978;2023-06-10T13:01:59;5.55;;;2.72;;
23384;SDS011;11865;45.394;10.978;2023-06-10T13:04:26;4.95;;;2.08;;
23384;SDS011;11865;45.394;10.978;2023-06-10T13:06:54;5.38;;;2.33;;
23384;SDS011;11865;45.394;10.978;2023-06-10T13:09:21;4.20;;;2.13;;
23384;SDS011;11865;45.394;10.978;2023-06-10T13:11:49;6.18;;;2.70;;
23384;SDS011;11865;45.394;10.978;2023-06-10T13:14:17;4.47;;;2.38;;
23384;SDS011;11865;45.394;10.978;2023-06-10T13:16:44;6.38;;;2.78;;
23384;SDS011;11865;45.394;10.978;2023-06-10T13:19:12;3.75;;;2.70;;
23384;SDS011;11865;45.394;10.978;2023-06-10T13:21:39;3.83;;;2.40;;
23384;SDS011;11865;45.394;10.978;2023-06-10T13:24:07;3.67;;;2.15;;
23384;SDS011;11865;45.394;10.978;2023-06-10T13:26:35;7.13;;;3.20;;
23384;SDS011;11865;45.394;10.978;2023-06-10T13:29:02;5.72;;;2.88;;
23384;SDS011;11865;45.394;10.978;2023-06-10T13:31:30;6.93;;;3.20;;
23384;SDS011;11865;45.394;10.978;2023-06-10T13:33:58;5.80;;;3.25;;
23384;SDS011;11865;45.394;10.978;2023-06-10T13:36:26;6.35;;;3.40;;
23384;SDS011;11865;45.394;10.978;2023-06-10T13:38:53;6.20;;;2.95;;
23384;SDS011;11865;45.394;10.978;2023-06-10T13:41:21;6.15;;;2.88;;
23384;SDS011;11865;45.394;10.978;2023-06-10T13:43:48;5.85;;;3.08;;
23384;SDS011;11865;45.394;10.978;2023-06-10T13:46:16;6.22;;;2.88;;
23384;SDS011;11865;45.394;10.978;2023-06-10T13:48:43;6.82;;;3.25;;
23384;SDS011;11865;45.394;10.978;2023-06-10T13:51:11;9.57;;;3.83;;
23384;SDS011;11865;45.394;10.978;2023-06-10T13:53:38;9.68;;;4.20;;
23384;SDS011;11865;45.394;10.978;2023-06-10T13:56:06;5.30;;;3.25;;
23384;SDS011;11865;45.394;10.978;2023-06-10T13:58:34;5.95;;;4.25;;
23384;SDS011;11865;45.394;10.978;2023-06-10T14:01:05;8.13;;;3.60;;
23384;SDS011;11865;45.394;10.978;2023-06-10T14:03:33;8.90;;;4.82;;
23384;SDS011;11865;45.394;10.978;2023-06-10T14:06:01;8.60;;;4.32;;
23384;SDS011;11865;45.394;10.978;2023-06-10T14:08:29;7.40;;;4.22;;
23384;SDS011;11865;45.394;10.978;2023-06-10T14:10:56;8.15;;;4.57;;
23384;SDS011;11865;45.394;10.978;2023-06-10T14:13:24;7.55;;;4.60;;
23384;SDS011;11865;45.394;10.978;2023-06-10T14:15:51;8.43;;;5.28;;
23384;SDS011;11865;45.394;10.978;2023-06-10T14:18:19;11.07;;;5.63;;
23384;SDS011;11865;45.394;10.978;2023-06-10T14:20:46;7.43;;;5.63;;
23384;SDS011;11865;45.394;10.978;2023-06-10T14:23:14;9.00;;;6.43;;
23384;SDS011;11865;45.394;10.978;2023-06-10T14:25:42;8.70;;;6.03;;
23384;SDS011;11865;45.394;10.978;2023-06-10T14:28:09;9.93;;;6.03;;
23384;SDS011;11865;45.394;10.978;2023-06-10T14:30:37;12.05;;;5.55;;
23384;SDS011;11865;45.394;10.978;2023-06-10T14:33:04;9.50;;;6.10;;
23384;SDS011;11865;45.394;10.978;2023-06-10T14:35:32;10.35;;;5.63;;
23384;SDS011;11865;45.394;10.978;2023-06-10T14:38:00;12.30;;;5.90;;
23384;SDS011;11865;45.394;10.978;2023-06-10T14:40:28;16.77;;;5.57;;
23384;SDS011;11865;45.394;10.978;2023-06-10T14:42:56;7.30;;;5.72;;
23384;SDS011;11865;45.394;10.978;2023-06-10T14:45:23;7.47;;;4.95;;
23384;SDS011;11865;45.394;10.978;2023-06-10T14:47:52;10.80;;;4.85;;
23384;SDS011;11865;45.394;10.978;2023-06-10T14:50:19;6.70;;;5.80;;